Forside
METAR-TAF:

METAR-TAF

Lufthavne :

Lemhi County Airport

Salmon, Idaho, USA

Breddekreds: 45-07N, længdekreds: 113-53W, højde: 1233 m

Aktuelle vejr

Denne rapport blev lavet for 43 minutter siden, kl. 15:56 UTC
Vind stille
Temperatur 2°C
Fugtighed 93%
Tryk 1019 hPa
Sigt: 16.1 km
Brudte skyer i en højde af 10000 ft

METAR: KSMN 231556Z AUTO 00000KT 10SM BKN100 02/01 A3008 RMK AO2 SLP206 T00220006 FZRANO

Tid: 10:39 (16:39 UTC)

Vejrudsigter

Denne rapport blev lavet for 5 timer og 19 minutter siden, kl. 11:20 UTC
Foreløbig gælder fra 23 på 12 UTC til 24 på 12 UTC
Vind kt fra nord
Sigt: 10 km
Brudte skyer i en højde af 10000 ft
Fra 23 på 1500 UTC
Vind 2 kt fra varierende retninger
Sigt: 10 km
Brudte skyer i en højde af 8000 ft
Overskyet i en højde af 10000 ft
byger i nærheden
Fra 24 på 0500 UTC
Vind 2 kt fra varierende retninger
Sigt: 10 km
Overskyet i en højde af 10000 ft

TAF: KSMN 231120Z 2312/2412 00000KT P6SM BKN100 FM231500 VRB02KT P6SM VCSH BKN080 OVC100 FM240500 VRB02KT P6SM OVC100

Vejrobservationer og prognoser fra mere end 4000 lufthavne (METAR og TAF).

De gule og røde prikker repræsenterer de meteorologiske stationer.

Flyt musen over at se navnet på stationen.

Så klik over at se vejr observationer og prognoser.

At skifte det kort: Klik på de grønne knapper med et sort kors for at zoome ind; på den grønne knap med en bindestreg for at zoome ud; eller på de grønne pile for tilstødende kort.


METAR-TAF: